sensor_id;sensor_type;location;lat;lon;timestamp;P1;durP1;ratioP1;P2;durP2;ratioP2
50495;SDS011;38806;51.554;5.704;2023-07-16T00:00:35;8.35;;;3.40;;
50495;SDS011;38806;51.554;5.704;2023-07-16T00:02:37;10.73;;;4.88;;
50495;SDS011;38806;51.554;5.704;2023-07-16T00:04:37;7.78;;;4.40;;
50495;SDS011;38806;51.554;5.704;2023-07-16T00:06:37;5.53;;;3.55;;
50495;SDS011;38806;51.554;5.704;2023-07-16T00:08:38;14.02;;;3.75;;
50495;SDS011;38806;51.554;5.704;2023-07-16T00:10:38;8.67;;;4.53;;
50495;SDS011;38806;51.554;5.704;2023-07-16T00:12:38;6.80;;;3.80;;
50495;SDS011;38806;51.554;5.704;2023-07-16T00:14:38;10.80;;;4.20;;
50495;SDS011;38806;51.554;5.704;2023-07-16T00:16:38;9.65;;;5.32;;
50495;SDS011;38806;51.554;5.704;2023-07-16T00:18:40;9.80;;;4.97;;
50495;SDS011;38806;51.554;5.704;2023-07-16T00:20:41;6.75;;;3.67;;
50495;SDS011;38806;51.554;5.704;2023-07-16T00:22:41;9.38;;;4.82;;
50495;SDS011;38806;51.554;5.704;2023-07-16T00:24:41;10.95;;;5.32;;
50495;SDS011;38806;51.554;5.704;2023-07-16T00:26:41;11.05;;;6.05;;
50495;SDS011;38806;51.554;5.704;2023-07-16T00:28:42;14.40;;;6.82;;
50495;SDS011;38806;51.554;5.704;2023-07-16T00:30:42;10.70;;;5.78;;
50495;SDS011;38806;51.554;5.704;2023-07-16T00:32:42;12.02;;;6.68;;
50495;SDS011;38806;51.554;5.704;2023-07-16T00:34:42;12.30;;;6.18;;
50495;SDS011;38806;51.554;5.704;2023-07-16T00:36:42;10.18;;;5.72;;
50495;SDS011;38806;51.554;5.704;2023-07-16T00:38:43;10.13;;;6.03;;
50495;SDS011;38806;51.554;5.704;2023-07-16T00:40:45;11.00;;;6.10;;
50495;SDS011;38806;51.554;5.704;2023-07-16T00:42:45;9.68;;;6.00;;
50495;SDS011;38806;51.554;5.704;2023-07-16T00:44:46;13.90;;;6.43;;
50495;SDS011;38806;51.554;5.704;2023-07-16T00:46:46;8.30;;;6.03;;
50495;SDS011;38806;51.554;5.704;2023-07-16T00:48:46;9.10;;;5.68;;
50495;SDS011;38806;51.554;5.704;2023-07-16T00:50:46;9.52;;;5.10;;
50495;SDS011;38806;51.554;5.704;2023-07-16T00:52:47;12.73;;;5.85;;
50495;SDS011;38806;51.554;5.704;2023-07-16T00:54:47;13.02;;;6.90;;
50495;SDS011;38806;51.554;5.704;2023-07-16T00:56:48;14.25;;;6.68;;
50495;SDS011;38806;51.554;5.704;2023-07-16T00:58:48;13.18;;;5.97;;
50495;SDS011;38806;51.554;5.704;2023-07-16T01:00:48;12.82;;;6.55;;
50495;SDS011;38806;51.554;5.704;2023-07-16T01:02:48;8.73;;;6.20;;
50495;SDS011;38806;51.554;5.704;2023-07-16T01:04:49;9.57;;;5.50;;
50495;SDS011;38806;51.554;5.704;2023-07-16T01:06:50;11.98;;;6.05;;
50495;SDS011;38806;51.554;5.704;2023-07-16T01:08:55;13.98;;;6.47;;
50495;SDS011;38806;51.554;5.704;2023-07-16T01:10:57;13.63;;;7.50;;
50495;SDS011;38806;51.554;5.704;2023-07-16T01:12:57;12.88;;;6.70;;
50495;SDS011;38806;51.554;5.704;2023-07-16T01:14:58;10.60;;;6.18;;
50495;SDS011;38806;51.554;5.704;2023-07-16T01:17:01;8.40;;;5.35;;
50495;SDS011;38806;51.554;5.704;2023-07-16T01:19:02;12.98;;;6.13;;
50495;SDS011;38806;51.554;5.704;2023-07-16T01:21:03;12.23;;;6.68;;
50495;SDS011;38806;51.554;5.704;2023-07-16T01:25:18;12.00;;;5.65;;
50495;SDS011;38806;51.554;5.704;2023-07-16T01:29:44;11.20;;;6.72;;
50495;SDS011;38806;51.554;5.704;2023-07-16T01:31:46;8.93;;;6.13;;
50495;SDS011;38806;51.554;5.704;2023-07-16T01:33:46;10.95;;;7.82;;
50495;SDS011;38806;51.554;5.704;2023-07-16T01:35:47;10.63;;;5.93;;
50495;SDS011;38806;51.554;5.704;2023-07-16T01:37:47;10.50;;;5.35;;
50495;SDS011;38806;51.554;5.704;2023-07-16T01:39:47;14.03;;;6.00;;
50495;SDS011;38806;51.554;5.704;2023-07-16T01:41:48;11.60;;;5.35;;
50495;SDS011;38806;51.554;5.704;2023-07-16T01:43:48;12.07;;;5.50;;
50495;SDS011;38806;51.554;5.704;2023-07-16T01:45:48;13.00;;;5.47;;
50495;SDS011;38806;51.554;5.704;2023-07-16T01:50:15;9.30;;;5.75;;
50495;SDS011;38806;51.554;5.704;2023-07-16T01:52:16;11.25;;;5.30;;
50495;SDS011;38806;51.554;5.704;2023-07-16T01:54:16;11.55;;;6.25;;
50495;SDS011;38806;51.554;5.704;2023-07-16T01:56:16;11.83;;;5.13;;
50495;SDS011;38806;51.554;5.704;2023-07-16T01:58:16;11.57;;;5.70;;
50495;SDS011;38806;51.554;5.704;2023-07-16T02:00:17;14.70;;;6.28;;
50495;SDS011;38806;51.554;5.704;2023-07-16T02:02:17;14.60;;;6.15;;
50495;SDS011;38806;51.554;5.704;2023-07-16T02:04:18;15.13;;;6.93;;
50495;SDS011;38806;51.554;5.704;2023-07-16T02:06:18;13.95;;;5.05;;
50495;SDS011;38806;51.554;5.704;2023-07-16T02:08:18;10.30;;;5.95;;
50495;SDS011;38806;51.554;5.704;2023-07-16T02:10:18;10.65;;;5.57;;
50495;SDS011;38806;51.554;5.704;2023-07-16T02:12:18;11.65;;;5.25;;
50495;SDS011;38806;51.554;5.704;2023-07-16T02:14:19;9.25;;;6.05;;
50495;SDS011;38806;51.554;5.704;2023-07-16T02:16:19;10.10;;;5.50;;
50495;SDS011;38806;51.554;5.704;2023-07-16T02:18:19;13.93;;;7.82;;
50495;SDS011;38806;51.554;5.704;2023-07-16T02:20:19;14.15;;;6.35;;
50495;SDS011;38806;51.554;5.704;2023-07-16T02:22:20;15.20;;;7.03;;
50495;SDS011;38806;51.554;5.704;2023-07-16T02:24:20;12.77;;;7.10;;
50495;SDS011;38806;51.554;5.704;2023-07-16T02:26:20;15.53;;;7.73;;
50495;SDS011;38806;51.554;5.704;2023-07-16T02:28:21;16.08;;;6.85;;
50495;SDS011;38806;51.554;5.704;2023-07-16T02:30:21;10.93;;;5.77;;
50495;SDS011;38806;51.554;5.704;2023-07-16T02:32:21;11.23;;;6.75;;
50495;SDS011;38806;51.554;5.704;2023-07-16T02:34:21;11.02;;;5.55;;
50495;SDS011;38806;51.554;5.704;2023-07-16T02:36:22;9.73;;;6.00;;
50495;SDS011;38806;51.554;5.704;2023-07-16T02:38:22;13.48;;;5.70;;
50495;SDS011;38806;51.554;5.704;2023-07-16T02:40:22;7.20;;;4.78;;
50495;SDS011;38806;51.554;5.704;2023-07-16T02:42:22;11.13;;;5.40;;
50495;SDS011;38806;51.554;5.704;2023-07-16T02:44:24;10.45;;;5.07;;
50495;SDS011;38806;51.554;5.704;2023-07-16T02:46:24;12.23;;;5.43;;
50495;SDS011;38806;51.554;5.704;2023-07-16T02:48:24;10.32;;;6.05;;
50495;SDS011;38806;51.554;5.704;2023-07-16T02:50:24;12.40;;;6.72;;
50495;SDS011;38806;51.554;5.704;2023-07-16T02:52:24;13.87;;;6.83;;
50495;SDS011;38806;51.554;5.704;2023-07-16T02:54:25;10.52;;;6.25;;
50495;SDS011;38806;51.554;5.704;2023-07-16T02:56:25;11.00;;;5.78;;
50495;SDS011;38806;51.554;5.704;2023-07-16T02:58:25;18.13;;;5.80;;
50495;SDS011;38806;51.554;5.704;2023-07-16T03:00:25;12.00;;;6.38;;
50495;SDS011;38806;51.554;5.704;2023-07-16T03:02:25;14.18;;;6.20;;
50495;SDS011;38806;51.554;5.704;2023-07-16T03:04:26;10.37;;;5.57;;
50495;SDS011;38806;51.554;5.704;2023-07-16T03:06:26;12.65;;;6.00;;
50495;SDS011;38806;51.554;5.704;2023-07-16T03:08:26;18.65;;;6.18;;
50495;SDS011;38806;51.554;5.704;2023-07-16T03:10:29;13.02;;;6.18;;
50495;SDS011;38806;51.554;5.704;2023-07-16T03:12:30;16.17;;;6.30;;
50495;SDS011;38806;51.554;5.704;2023-07-16T03:14:30;7.28;;;5.13;;
50495;SDS011;38806;51.554;5.704;2023-07-16T03:16:30;15.70;;;5.57;;
50495;SDS011;38806;51.554;5.704;2023-07-16T03:18:30;8.02;;;4.38;;
50495;SDS011;38806;51.554;5.704;2023-07-16T03:20:30;8.25;;;5.63;;
50495;SDS011;38806;51.554;5.704;2023-07-16T03:22:31;10.73;;;4.88;;
50495;SDS011;38806;51.554;5.704;2023-07-16T03:24:31;11.80;;;5.00;;
50495;SDS011;38806;51.554;5.704;2023-07-16T03:26:31;10.32;;;5.45;;
50495;SDS011;38806;51.554;5.704;2023-07-16T03:28:32;12.82;;;4.50;;
50495;SDS011;38806;51.554;5.704;2023-07-16T03:30:32;12.35;;;5.53;;
50495;SDS011;38806;51.554;5.704;2023-07-16T03:32:33;13.48;;;6.28;;
50495;SDS011;38806;51.554;5.704;2023-07-16T03:34:33;12.43;;;5.43;;
50495;SDS011;38806;51.554;5.704;2023-07-16T03:36:33;12.55;;;5.80;;
50495;SDS011;38806;51.554;5.704;2023-07-16T03:38:33;10.98;;;5.30;;
50495;SDS011;38806;51.554;5.704;2023-07-16T03:40:33;15.82;;;7.35;;
50495;SDS011;38806;51.554;5.704;2023-07-16T03:42:34;13.75;;;4.22;;
50495;SDS011;38806;51.554;5.704;2023-07-16T03:44:34;9.10;;;3.97;;
50495;SDS011;38806;51.554;5.704;2023-07-16T03:46:34;13.35;;;6.00;;
50495;SDS011;38806;51.554;5.704;2023-07-16T03:48:35;11.70;;;5.77;;
50495;SDS011;38806;51.554;5.704;2023-07-16T03:50:35;9.43;;;5.07;;
50495;SDS011;38806;51.554;5.704;2023-07-16T03:52:35;9.35;;;5.68;;
50495;SDS011;38806;51.554;5.704;2023-07-16T03:54:36;10.70;;;4.65;;
50495;SDS011;38806;51.554;5.704;2023-07-16T03:56:36;11.38;;;4.72;;
50495;SDS011;38806;51.554;5.704;2023-07-16T03:58:36;9.68;;;5.43;;
50495;SDS011;38806;51.554;5.704;2023-07-16T04:00:36;14.25;;;5.68;;
50495;SDS011;38806;51.554;5.704;2023-07-16T04:02:36;10.88;;;5.70;;
50495;SDS011;38806;51.554;5.704;2023-07-16T04:04:36;15.48;;;5.35;;
50495;SDS011;38806;51.554;5.704;2023-07-16T04:06:37;10.27;;;5.82;;
50495;SDS011;38806;51.554;5.704;2023-07-16T04:08:37;11.65;;;4.97;;
50495;SDS011;38806;51.554;5.704;2023-07-16T04:10:37;12.07;;;5.85;;
50495;SDS011;38806;51.554;5.704;2023-07-16T04:12:38;15.35;;;6.93;;
50495;SDS011;38806;51.554;5.704;2023-07-16T04:14:38;11.82;;;5.43;;
50495;SDS011;38806;51.554;5.704;2023-07-16T04:16:38;9.85;;;4.25;;
50495;SDS011;38806;51.554;5.704;2023-07-16T04:18:38;14.43;;;5.20;;
50495;SDS011;38806;51.554;5.704;2023-07-16T04:20:38;12.32;;;6.50;;
50495;SDS011;38806;51.554;5.704;2023-07-16T04:22:39;9.98;;;4.25;;
50495;SDS011;38806;51.554;5.704;2023-07-16T04:24:39;13.32;;;4.72;;
50495;SDS011;38806;51.554;5.704;2023-07-16T04:26:39;13.55;;;5.40;;
50495;SDS011;38806;51.554;5.704;2023-07-16T04:28:40;15.10;;;5.30;;
50495;SDS011;38806;51.554;5.704;2023-07-16T04:30:40;11.73;;;4.65;;
50495;SDS011;38806;51.554;5.704;2023-07-16T04:32:40;14.50;;;5.30;;
50495;SDS011;38806;51.554;5.704;2023-07-16T04:34:40;16.02;;;6.43;;
50495;SDS011;38806;51.554;5.704;2023-07-16T04:36:41;13.52;;;6.13;;
50495;SDS011;38806;51.554;5.704;2023-07-16T04:38:42;12.50;;;6.53;;
50495;SDS011;38806;51.554;5.704;2023-07-16T04:40:42;12.25;;;6.70;;
50495;SDS011;38806;51.554;5.704;2023-07-16T04:42:43;11.02;;;5.72;;
50495;SDS011;38806;51.554;5.704;2023-07-16T04:44:43;16.67;;;5.97;;
50495;SDS011;38806;51.554;5.704;2023-07-16T04:46:43;12.13;;;5.38;;
50495;SDS011;38806;51.554;5.704;2023-07-16T04:48:44;13.02;;;5.15;;
50495;SDS011;38806;51.554;5.704;2023-07-16T04:50:44;14.93;;;6.43;;
50495;SDS011;38806;51.554;5.704;2023-07-16T04:52:44;10.48;;;5.32;;
50495;SDS011;38806;51.554;5.704;2023-07-16T04:54:44;12.52;;;5.55;;
50495;SDS011;38806;51.554;5.704;2023-07-16T04:56:45;12.38;;;6.30;;
50495;SDS011;38806;51.554;5.704;2023-07-16T04:58:45;13.40;;;5.30;;
50495;SDS011;38806;51.554;5.704;2023-07-16T05:00:45;17.55;;;6.13;;
50495;SDS011;38806;51.554;5.704;2023-07-16T05:02:45;13.25;;;5.38;;
50495;SDS011;38806;51.554;5.704;2023-07-16T05:04:46;14.23;;;6.47;;
50495;SDS011;38806;51.554;5.704;2023-07-16T05:06:48;11.45;;;6.25;;
50495;SDS011;38806;51.554;5.704;2023-07-16T05:08:48;13.30;;;6.78;;
50495;SDS011;38806;51.554;5.704;2023-07-16T05:10:48;15.65;;;5.75;;
50495;SDS011;38806;51.554;5.704;2023-07-16T05:12:48;14.80;;;6.82;;
50495;SDS011;38806;51.554;5.704;2023-07-16T05:14:49;22.58;;;8.88;;
50495;SDS011;38806;51.554;5.704;2023-07-16T05:16:49;15.02;;;6.22;;
50495;SDS011;38806;51.554;5.704;2023-07-16T05:18:49;13.40;;;6.03;;
50495;SDS011;38806;51.554;5.704;2023-07-16T05:20:49;13.40;;;5.00;;
50495;SDS011;38806;51.554;5.704;2023-07-16T05:22:50;13.25;;;6.15;;
50495;SDS011;38806;51.554;5.704;2023-07-16T05:24:50;13.75;;;6.78;;
50495;SDS011;38806;51.554;5.704;2023-07-16T05:26:51;16.08;;;6.68;;
50495;SDS011;38806;51.554;5.704;2023-07-16T05:28:52;9.32;;;4.95;;
50495;SDS011;38806;51.554;5.704;2023-07-16T05:31:02;14.05;;;6.78;;
50495;SDS011;38806;51.554;5.704;2023-07-16T05:33:02;13.20;;;5.93;;
50495;SDS011;38806;51.554;5.704;2023-07-16T05:35:02;12.93;;;5.78;;
50495;SDS011;38806;51.554;5.704;2023-07-16T05:37:03;13.43;;;6.90;;
50495;SDS011;38806;51.554;5.704;2023-07-16T05:39:03;18.98;;;5.50;;
50495;SDS011;38806;51.554;5.704;2023-07-16T05:41:03;15.65;;;7.28;;
50495;SDS011;38806;51.554;5.704;2023-07-16T05:43:04;17.73;;;6.65;;
50495;SDS011;38806;51.554;5.704;2023-07-16T05:45:05;11.32;;;6.35;;
50495;SDS011;38806;51.554;5.704;2023-07-16T05:47:05;14.05;;;6.68;;
50495;SDS011;38806;51.554;5.704;2023-07-16T05:49:06;13.20;;;5.78;;
50495;SDS011;38806;51.554;5.704;2023-07-16T05:51:06;16.92;;;6.32;;
50495;SDS011;38806;51.554;5.704;2023-07-16T05:53:06;19.13;;;8.98;;
50495;SDS011;38806;51.554;5.704;2023-07-16T05:55:07;19.33;;;6.93;;
50495;SDS011;38806;51.554;5.704;2023-07-16T05:57:07;20.58;;;8.38;;
50495;SDS011;38806;51.554;5.704;2023-07-16T05:59:07;11.97;;;6.53;;
50495;SDS011;38806;51.554;5.704;2023-07-16T06:01:08;20.13;;;6.18;;
50495;SDS011;38806;51.554;5.704;2023-07-16T06:03:08;11.93;;;6.50;;
50495;SDS011;38806;51.554;5.704;2023-07-16T06:05:08;14.40;;;6.30;;
50495;SDS011;38806;51.554;5.704;2023-07-16T06:07:09;21.10;;;6.53;;
50495;SDS011;38806;51.554;5.704;2023-07-16T06:09:09;13.35;;;6.72;;
50495;SDS011;38806;51.554;5.704;2023-07-16T06:11:09;14.13;;;6.78;;
50495;SDS011;38806;51.554;5.704;2023-07-16T06:13:10;24.75;;;7.30;;
50495;SDS011;38806;51.554;5.704;2023-07-16T06:15:10;12.23;;;7.45;;
50495;SDS011;38806;51.554;5.704;2023-07-16T06:17:11;16.85;;;7.18;;
50495;SDS011;38806;51.554;5.704;2023-07-16T06:19:11;12.32;;;5.95;;
50495;SDS011;38806;51.554;5.704;2023-07-16T06:21:11;16.60;;;6.50;;
50495;SDS011;38806;51.554;5.704;2023-07-16T06:23:12;14.18;;;7.07;;
50495;SDS011;38806;51.554;5.704;2023-07-16T06:25:12;14.30;;;6.40;;
50495;SDS011;38806;51.554;5.704;2023-07-16T06:27:12;15.63;;;6.40;;
50495;SDS011;38806;51.554;5.704;2023-07-16T06:29:13;13.90;;;7.85;;
50495;SDS011;38806;51.554;5.704;2023-07-16T06:31:13;11.30;;;6.45;;
50495;SDS011;38806;51.554;5.704;2023-07-16T06:33:13;14.63;;;7.97;;
50495;SDS011;38806;51.554;5.704;2023-07-16T06:35:13;13.63;;;8.07;;
50495;SDS011;38806;51.554;5.704;2023-07-16T06:37:14;14.63;;;6.63;;
50495;SDS011;38806;51.554;5.704;2023-07-16T06:39:14;11.07;;;6.82;;
50495;SDS011;38806;51.554;5.704;2023-07-16T06:41:14;16.73;;;6.83;;
50495;SDS011;38806;51.554;5.704;2023-07-16T06:43:14;13.50;;;6.45;;
50495;SDS011;38806;51.554;5.704;2023-07-16T06:45:16;12.05;;;6.45;;
50495;SDS011;38806;51.554;5.704;2023-07-16T06:47:16;14.32;;;7.85;;
50495;SDS011;38806;51.554;5.704;2023-07-16T06:49:17;15.05;;;7.57;;
50495;SDS011;38806;51.554;5.704;2023-07-16T06:51:17;15.10;;;7.55;;
50495;SDS011;38806;51.554;5.704;2023-07-16T06:53:17;14.52;;;7.35;;
50495;SDS011;38806;51.554;5.704;2023-07-16T06:55:17;12.18;;;6.55;;
50495;SDS011;38806;51.554;5.704;2023-07-16T06:57:17;17.23;;;6.87;;
50495;SDS011;38806;51.554;5.704;2023-07-16T06:59:18;16.63;;;7.15;;
50495;SDS011;38806;51.554;5.704;2023-07-16T07:01:18;11.23;;;7.45;;
50495;SDS011;38806;51.554;5.704;2023-07-16T07:03:18;13.77;;;7.22;;
50495;SDS011;38806;51.554;5.704;2023-07-16T07:05:18;23.53;;;7.70;;
50495;SDS011;38806;51.554;5.704;2023-07-16T07:07:18;16.63;;;7.82;;
50495;SDS011;38806;51.554;5.704;2023-07-16T07:09:19;10.40;;;6.20;;
50495;SDS011;38806;51.554;5.704;2023-07-16T07:11:19;13.73;;;7.33;;
50495;SDS011;38806;51.554;5.704;2023-07-16T07:13:19;11.63;;;6.07;;
50495;SDS011;38806;51.554;5.704;2023-07-16T07:15:19;17.45;;;8.20;;
50495;SDS011;38806;51.554;5.704;2023-07-16T07:17:19;13.57;;;7.85;;
50495;SDS011;38806;51.554;5.704;2023-07-16T07:19:20;15.93;;;6.57;;
50495;SDS011;38806;51.554;5.704;2023-07-16T07:21:20;16.27;;;6.60;;
50495;SDS011;38806;51.554;5.704;2023-07-16T07:23:20;13.57;;;6.27;;
50495;SDS011;38806;51.554;5.704;2023-07-16T07:25:20;15.57;;;7.82;;
50495;SDS011;38806;51.554;5.704;2023-07-16T07:27:20;14.95;;;8.38;;
50495;SDS011;38806;51.554;5.704;2023-07-16T07:29:21;14.47;;;7.93;;
50495;SDS011;38806;51.554;5.704;2023-07-16T07:31:21;13.30;;;6.97;;
50495;SDS011;38806;51.554;5.704;2023-07-16T07:33:21;14.57;;;7.78;;
50495;SDS011;38806;51.554;5.704;2023-07-16T07:35:21;14.65;;;7.30;;
50495;SDS011;38806;51.554;5.704;2023-07-16T07:37:21;12.10;;;6.50;;
50495;SDS011;38806;51.554;5.704;2023-07-16T07:39:22;11.63;;;7.13;;
50495;SDS011;38806;51.554;5.704;2023-07-16T07:41:22;13.77;;;7.67;;
50495;SDS011;38806;51.554;5.704;2023-07-16T07:43:22;17.80;;;7.40;;
50495;SDS011;38806;51.554;5.704;2023-07-16T07:45:23;14.05;;;6.05;;
50495;SDS011;38806;51.554;5.704;2023-07-16T07:47:23;21.92;;;7.07;;
50495;SDS011;38806;51.554;5.704;2023-07-16T07:49:24;13.50;;;6.43;;
50495;SDS011;38806;51.554;5.704;2023-07-16T07:51:24;11.82;;;7.28;;
50495;SDS011;38806;51.554;5.704;2023-07-16T07:53:24;14.50;;;6.88;;
50495;SDS011;38806;51.554;5.704;2023-07-16T07:55:24;12.57;;;6.30;;
50495;SDS011;38806;51.554;5.704;2023-07-16T07:57:25;11.87;;;5.90;;
50495;SDS011;38806;51.554;5.704;2023-07-16T07:59:25;15.43;;;6.33;;
50495;SDS011;38806;51.554;5.704;2023-07-16T08:01:25;11.80;;;6.27;;
50495;SDS011;38806;51.554;5.704;2023-07-16T08:03:25;13.98;;;5.60;;
50495;SDS011;38806;51.554;5.704;2023-07-16T08:05:25;14.00;;;6.03;;
50495;SDS011;38806;51.554;5.704;2023-07-16T08:07:26;13.40;;;6.25;;
50495;SDS011;38806;51.554;5.704;2023-07-16T08:09:26;14.40;;;6.00;;
50495;SDS011;38806;51.554;5.704;2023-07-16T08:11:27;13.70;;;7.68;;
50495;SDS011;38806;51.554;5.704;2023-07-16T08:13:27;15.67;;;7.20;;
50495;SDS011;38806;51.554;5.704;2023-07-16T08:15:27;12.63;;;7.10;;
50495;SDS011;38806;51.554;5.704;2023-07-16T08:17:27;15.82;;;5.75;;
50495;SDS011;38806;51.554;5.704;2023-07-16T08:19:28;16.27;;;7.13;;
50495;SDS011;38806;51.554;5.704;2023-07-16T08:21:28;14.40;;;5.77;;
50495;SDS011;38806;51.554;5.704;2023-07-16T08:23:28;18.45;;;7.07;;
50495;SDS011;38806;51.554;5.704;2023-07-16T08:25:28;15.17;;;5.77;;
50495;SDS011;38806;51.554;5.704;2023-07-16T08:27:29;14.00;;;7.00;;
50495;SDS011;38806;51.554;5.704;2023-07-16T08:29:30;12.73;;;5.93;;
50495;SDS011;38806;51.554;5.704;2023-07-16T08:31:30;12.77;;;6.63;;
50495;SDS011;38806;51.554;5.704;2023-07-16T08:33:30;10.47;;;5.37;;
50495;SDS011;38806;51.554;5.704;2023-07-16T08:35:30;10.82;;;5.90;;
50495;SDS011;38806;51.554;5.704;2023-07-16T08:37:31;12.00;;;5.15;;
50495;SDS011;38806;51.554;5.704;2023-07-16T08:39:31;15.57;;;5.43;;
50495;SDS011;38806;51.554;5.704;2023-07-16T08:41:31;14.18;;;5.95;;
50495;SDS011;38806;51.554;5.704;2023-07-16T08:43:32;12.23;;;5.60;;
50495;SDS011;38806;51.554;5.704;2023-07-16T08:45:34;10.95;;;5.43;;
50495;SDS011;38806;51.554;5.704;2023-07-16T08:47:36;13.13;;;5.63;;
50495;SDS011;38806;51.554;5.704;2023-07-16T08:49:36;13.68;;;6.47;;
50495;SDS011;38806;51.554;5.704;2023-07-16T08:51:38;13.38;;;5.80;;
50495;SDS011;38806;51.554;5.704;2023-07-16T08:53:39;9.82;;;5.32;;
50495;SDS011;38806;51.554;5.704;2023-07-16T08:55:39;10.10;;;4.40;;
50495;SDS011;38806;51.554;5.704;2023-07-16T08:57:39;9.30;;;4.85;;
50495;SDS011;38806;51.554;5.704;2023-07-16T08:59:40;10.68;;;5.63;;
50495;SDS011;38806;51.554;5.704;2023-07-16T09:01:40;7.90;;;4.70;;
50495;SDS011;38806;51.554;5.704;2023-07-16T09:03:40;11.30;;;5.32;;
50495;SDS011;38806;51.554;5.704;2023-07-16T09:05:41;12.13;;;5.45;;
50495;SDS011;38806;51.554;5.704;2023-07-16T09:07:42;8.70;;;5.53;;
50495;SDS011;38806;51.554;5.704;2023-07-16T09:09:42;10.33;;;5.13;;
50495;SDS011;38806;51.554;5.704;2023-07-16T09:11:46;10.60;;;5.38;;
50495;SDS011;38806;51.554;5.704;2023-07-16T09:13:46;13.82;;;5.88;;
50495;SDS011;38806;51.554;5.704;2023-07-16T09:15:56;9.23;;;4.97;;
50495;SDS011;38806;51.554;5.704;2023-07-16T09:17:56;11.80;;;6.25;;
50495;SDS011;38806;51.554;5.704;2023-07-16T09:19:57;10.52;;;4.50;;
50495;SDS011;38806;51.554;5.704;2023-07-16T09:21:57;9.43;;;4.57;;
50495;SDS011;38806;51.554;5.704;2023-07-16T09:23:57;11.03;;;5.13;;
50495;SDS011;38806;51.554;5.704;2023-07-16T09:25:58;11.90;;;4.87;;
50495;SDS011;38806;51.554;5.704;2023-07-16T09:28:01;10.43;;;4.90;;
50495;SDS011;38806;51.554;5.704;2023-07-16T09:30:05;24.40;;;7.07;;
50495;SDS011;38806;51.554;5.704;2023-07-16T09:32:06;16.23;;;4.82;;
50495;SDS011;38806;51.554;5.704;2023-07-16T09:34:08;11.63;;;5.55;;
50495;SDS011;38806;51.554;5.704;2023-07-16T09:36:09;15.75;;;5.63;;
50495;SDS011;38806;51.554;5.704;2023-07-16T09:38:09;13.15;;;5.43;;
50495;SDS011;38806;51.554;5.704;2023-07-16T09:40:10;12.65;;;5.32;;
50495;SDS011;38806;51.554;5.704;2023-07-16T09:42:11;13.50;;;5.85;;
50495;SDS011;38806;51.554;5.704;2023-07-16T09:44:11;9.32;;;5.45;;
50495;SDS011;38806;51.554;5.704;2023-07-16T09:46:12;10.40;;;5.55;;
50495;SDS011;38806;51.554;5.704;2023-07-16T09:48:12;6.88;;;4.43;;
50495;SDS011;38806;51.554;5.704;2023-07-16T09:50:13;7.97;;;3.83;;
50495;SDS011;38806;51.554;5.704;2023-07-16T09:52:13;8.70;;;4.40;;
50495;SDS011;38806;51.554;5.704;2023-07-16T09:54:15;10.35;;;4.00;;
50495;SDS011;38806;51.554;5.704;2023-07-16T09:56:15;8.00;;;3.92;;
50495;SDS011;38806;51.554;5.704;2023-07-16T09:58:16;8.48;;;4.03;;
50495;SDS011;38806;51.554;5.704;2023-07-16T10:00:19;10.52;;;4.22;;
50495;SDS011;38806;51.554;5.704;2023-07-16T10:02:20;10.98;;;5.80;;
50495;SDS011;38806;51.554;5.704;2023-07-16T10:04:21;8.77;;;3.97;;
50495;SDS011;38806;51.554;5.704;2023-07-16T10:06:21;8.03;;;4.27;;
50495;SDS011;38806;51.554;5.704;2023-07-16T10:08:21;11.03;;;4.47;;
50495;SDS011;38806;51.554;5.704;2023-07-16T10:10:24;10.53;;;5.40;;
50495;SDS011;38806;51.554;5.704;2023-07-16T10:12:25;9.23;;;4.10;;
50495;SDS011;38806;51.554;5.704;2023-07-16T10:14:26;6.90;;;3.83;;
50495;SDS011;38806;51.554;5.704;2023-07-16T10:16:26;8.03;;;4.43;;
50495;SDS011;38806;51.554;5.704;2023-07-16T10:18:28;11.65;;;4.90;;
50495;SDS011;38806;51.554;5.704;2023-07-16T10:20:31;6.65;;;3.40;;
50495;SDS011;38806;51.554;5.704;2023-07-16T10:22:32;10.18;;;3.28;;
50495;SDS011;38806;51.554;5.704;2023-07-16T10:24:33;9.23;;;4.20;;
50495;SDS011;38806;51.554;5.704;2023-07-16T10:26:38;6.55;;;3.58;;
50495;SDS011;38806;51.554;5.704;2023-07-16T10:28:38;7.80;;;3.53;;
50495;SDS011;38806;51.554;5.704;2023-07-16T10:30:39;7.35;;;3.80;;
50495;SDS011;38806;51.554;5.704;2023-07-16T10:32:39;6.45;;;3.30;;
50495;SDS011;38806;51.554;5.704;2023-07-16T10:34:40;6.40;;;3.05;;
50495;SDS011;38806;51.554;5.704;2023-07-16T10:36:40;7.25;;;3.40;;
50495;SDS011;38806;51.554;5.704;2023-07-16T10:38:41;9.45;;;3.67;;
50495;SDS011;38806;51.554;5.704;2023-07-16T10:40:44;9.38;;;3.25;;
50495;SDS011;38806;51.554;5.704;2023-07-16T10:42:45;7.22;;;4.30;;
50495;SDS011;38806;51.554;5.704;2023-07-16T10:44:50;6.40;;;4.00;;
50495;SDS011;38806;51.554;5.704;2023-07-16T10:46:51;7.95;;;4.68;;
50495;SDS011;38806;51.554;5.704;2023-07-16T10:48:54;8.93;;;4.15;;
50495;SDS011;38806;51.554;5.704;2023-07-16T10:50:54;8.17;;;4.50;;
50495;SDS011;38806;51.554;5.704;2023-07-16T10:52:55;9.88;;;3.83;;
50495;SDS011;38806;51.554;5.704;2023-07-16T10:54:56;8.80;;;4.50;;
50495;SDS011;38806;51.554;5.704;2023-07-16T10:56:57;11.25;;;4.57;;
50495;SDS011;38806;51.554;5.704;2023-07-16T10:58:57;7.70;;;4.00;;
50495;SDS011;38806;51.554;5.704;2023-07-16T11:00:58;13.97;;;5.03;;
50495;SDS011;38806;51.554;5.704;2023-07-16T11:02:58;9.30;;;3.92;;
50495;SDS011;38806;51.554;5.704;2023-07-16T11:04:58;9.73;;;5.37;;
50495;SDS011;38806;51.554;5.704;2023-07-16T11:07:07;6.95;;;4.25;;
50495;SDS011;38806;51.554;5.704;2023-07-16T11:09:09;14.57;;;4.53;;
50495;SDS011;38806;51.554;5.704;2023-07-16T11:11:09;8.70;;;4.57;;
50495;SDS011;38806;51.554;5.704;2023-07-16T11:13:09;8.87;;;3.57;;
50495;SDS011;38806;51.554;5.704;2023-07-16T11:15:10;7.43;;;3.30;;
50495;SDS011;38806;51.554;5.704;2023-07-16T11:17:10;8.82;;;4.15;;
50495;SDS011;38806;51.554;5.704;2023-07-16T11:19:10;12.80;;;4.75;;
50495;SDS011;38806;51.554;5.704;2023-07-16T11:21:11;8.88;;;4.28;;
50495;SDS011;38806;51.554;5.704;2023-07-16T11:23:11;9.83;;;5.07;;
50495;SDS011;38806;51.554;5.704;2023-07-16T11:25:11;6.80;;;3.20;;
50495;SDS011;38806;51.554;5.704;2023-07-16T11:29:14;8.50;;;4.75;;
50495;SDS011;38806;51.554;5.704;2023-07-16T11:31:15;8.60;;;4.22;;
50495;SDS011;38806;51.554;5.704;2023-07-16T11:33:15;7.90;;;4.03;;
50495;SDS011;38806;51.554;5.704;2023-07-16T11:35:16;10.23;;;5.10;;
50495;SDS011;38806;51.554;5.704;2023-07-16T11:37:17;7.53;;;3.83;;
50495;SDS011;38806;51.554;5.704;2023-07-16T11:39:17;12.27;;;4.73;;
50495;SDS011;38806;51.554;5.704;2023-07-16T11:41:19;11.15;;;4.45;;
50495;SDS011;38806;51.554;5.704;2023-07-16T11:43:19;8.15;;;4.15;;
50495;SDS011;38806;51.554;5.704;2023-07-16T11:45:20;11.90;;;4.67;;
50495;SDS011;38806;51.554;5.704;2023-07-16T11:47:23;8.75;;;4.30;;
50495;SDS011;38806;51.554;5.704;2023-07-16T11:49:23;7.53;;;3.67;;
50495;SDS011;38806;51.554;5.704;2023-07-16T11:51:23;6.80;;;3.90;;
50495;SDS011;38806;51.554;5.704;2023-07-16T11:53:23;10.53;;;4.33;;
50495;SDS011;38806;51.554;5.704;2023-07-16T11:55:24;11.30;;;4.78;;
50495;SDS011;38806;51.554;5.704;2023-07-16T11:57:24;18.90;;;5.40;;
50495;SDS011;38806;51.554;5.704;2023-07-16T11:59:24;10.57;;;4.27;;
50495;SDS011;38806;51.554;5.704;2023-07-16T12:01:24;8.40;;;4.40;;
50495;SDS011;38806;51.554;5.704;2023-07-16T12:03:24;12.00;;;5.33;;
50495;SDS011;38806;51.554;5.704;2023-07-16T12:05:25;7.50;;;5.17;;
50495;SDS011;38806;51.554;5.704;2023-07-16T12:07:34;7.60;;;4.18;;